sensor_id;sensor_type;location;lat;lon;timestamp;P1;durP1;ratioP1;P2;durP2;ratioP2
17153;SDS011;8692;52.164;7.558;2022-12-07T00:01:45;8.30;;;7.50;;
17153;SDS011;8692;52.164;7.558;2022-12-07T00:04:17;9.53;;;7.27;;
17153;SDS011;8692;52.164;7.558;2022-12-07T00:06:50;7.27;;;6.37;;
17153;SDS011;8692;52.164;7.558;2022-12-07T00:09:19;9.17;;;7.43;;
17153;SDS011;8692;52.164;7.558;2022-12-07T00:11:50;8.43;;;7.30;;
17153;SDS011;8692;52.164;7.558;2022-12-07T00:14:20;7.80;;;6.47;;
17153;SDS011;8692;52.164;7.558;2022-12-07T00:16:48;7.17;;;6.03;;
17153;SDS011;8692;52.164;7.558;2022-12-07T00:19:18;7.13;;;6.43;;
17153;SDS011;8692;52.164;7.558;2022-12-07T00:21:46;6.47;;;5.80;;
17153;SDS011;8692;52.164;7.558;2022-12-07T00:24:14;6.33;;;5.57;;
17153;SDS011;8692;52.164;7.558;2022-12-07T00:26:43;7.03;;;5.83;;
17153;SDS011;8692;52.164;7.558;2022-12-07T00:29:13;7.63;;;6.27;;
17153;SDS011;8692;52.164;7.558;2022-12-07T00:31:46;7.60;;;6.50;;
17153;SDS011;8692;52.164;7.558;2022-12-07T00:34:17;7.17;;;6.37;;
17153;SDS011;8692;52.164;7.558;2022-12-07T00:36:47;7.83;;;7.10;;
17153;SDS011;8692;52.164;7.558;2022-12-07T00:39:15;8.80;;;7.13;;
17153;SDS011;8692;52.164;7.558;2022-12-07T00:41:44;9.73;;;7.03;;
17153;SDS011;8692;52.164;7.558;2022-12-07T00:44:12;9.60;;;7.70;;
17153;SDS011;8692;52.164;7.558;2022-12-07T00:46:40;9.67;;;7.77;;
17153;SDS011;8692;52.164;7.558;2022-12-07T00:49:12;8.07;;;7.30;;
17153;SDS011;8692;52.164;7.558;2022-12-07T00:51:40;7.53;;;6.77;;
17153;SDS011;8692;52.164;7.558;2022-12-07T00:54:10;7.93;;;7.13;;
17153;SDS011;8692;52.164;7.558;2022-12-07T00:56:38;8.77;;;6.97;;
17153;SDS011;8692;52.164;7.558;2022-12-07T00:59:07;8.40;;;7.13;;
17153;SDS011;8692;52.164;7.558;2022-12-07T01:01:39;8.47;;;6.00;;
17153;SDS011;8692;52.164;7.558;2022-12-07T01:04:07;6.87;;;6.17;;
17153;SDS011;8692;52.164;7.558;2022-12-07T01:06:39;7.83;;;6.17;;
17153;SDS011;8692;52.164;7.558;2022-12-07T01:09:07;7.23;;;6.50;;
17153;SDS011;8692;52.164;7.558;2022-12-07T01:11:38;7.70;;;6.57;;
17153;SDS011;8692;52.164;7.558;2022-12-07T01:14:06;8.87;;;6.80;;
17153;SDS011;8692;52.164;7.558;2022-12-07T01:16:34;6.83;;;6.03;;
17153;SDS011;8692;52.164;7.558;2022-12-07T01:19:02;6.70;;;6.10;;
17153;SDS011;8692;52.164;7.558;2022-12-07T01:21:32;6.47;;;5.70;;
17153;SDS011;8692;52.164;7.558;2022-12-07T01:24:06;5.97;;;5.17;;
17153;SDS011;8692;52.164;7.558;2022-12-07T01:26:36;8.53;;;6.00;;
17153;SDS011;8692;52.164;7.558;2022-12-07T01:29:04;7.43;;;5.70;;
17153;SDS011;8692;52.164;7.558;2022-12-07T01:31:33;7.77;;;5.93;;
17153;SDS011;8692;52.164;7.558;2022-12-07T01:34:01;7.17;;;5.83;;
17153;SDS011;8692;52.164;7.558;2022-12-07T01:36:30;7.70;;;6.20;;
17153;SDS011;8692;52.164;7.558;2022-12-07T01:39:00;8.50;;;5.33;;
17153;SDS011;8692;52.164;7.558;2022-12-07T01:41:34;5.10;;;4.60;;
17153;SDS011;8692;52.164;7.558;2022-12-07T01:46:53;7.17;;;5.07;;
17153;SDS011;8692;52.164;7.558;2022-12-07T01:49:26;6.63;;;5.17;;
17153;SDS011;8692;52.164;7.558;2022-12-07T01:51:59;5.80;;;5.17;;
17153;SDS011;8692;52.164;7.558;2022-12-07T01:54:34;8.37;;;5.30;;
17153;SDS011;8692;52.164;7.558;2022-12-07T01:57:04;5.90;;;5.27;;
17153;SDS011;8692;52.164;7.558;2022-12-07T01:59:37;8.07;;;5.33;;
17153;SDS011;8692;52.164;7.558;2022-12-07T02:02:07;7.83;;;5.33;;
17153;SDS011;8692;52.164;7.558;2022-12-07T02:04:43;6.10;;;4.90;;
17153;SDS011;8692;52.164;7.558;2022-12-07T02:07:11;6.07;;;4.37;;
17153;SDS011;8692;52.164;7.558;2022-12-07T02:09:40;6.37;;;5.23;;
17153;SDS011;8692;52.164;7.558;2022-12-07T02:12:11;7.10;;;4.90;;
17153;SDS011;8692;52.164;7.558;2022-12-07T02:14:40;7.13;;;4.87;;
17153;SDS011;8692;52.164;7.558;2022-12-07T02:17:10;5.67;;;5.00;;
17153;SDS011;8692;52.164;7.558;2022-12-07T02:19:57;8.00;;;4.90;;
17153;SDS011;8692;52.164;7.558;2022-12-07T02:22:50;7.80;;;5.60;;
17153;SDS011;8692;52.164;7.558;2022-12-07T02:25:30;5.70;;;5.00;;
17153;SDS011;8692;52.164;7.558;2022-12-07T02:28:21;8.23;;;4.73;;
17153;SDS011;8692;52.164;7.558;2022-12-07T02:31:03;5.13;;;4.27;;
17153;SDS011;8692;52.164;7.558;2022-12-07T02:33:36;7.77;;;4.97;;
17153;SDS011;8692;52.164;7.558;2022-12-07T02:36:10;5.30;;;4.50;;
17153;SDS011;8692;52.164;7.558;2022-12-07T02:38:44;5.93;;;4.33;;
17153;SDS011;8692;52.164;7.558;2022-12-07T02:41:18;5.77;;;4.10;;
17153;SDS011;8692;52.164;7.558;2022-12-07T02:43:52;9.93;;;4.57;;
17153;SDS011;8692;52.164;7.558;2022-12-07T02:46:25;6.57;;;5.33;;
17153;SDS011;8692;52.164;7.558;2022-12-07T02:48:56;6.63;;;4.63;;
17153;SDS011;8692;52.164;7.558;2022-12-07T02:51:29;10.63;;;4.20;;
17153;SDS011;8692;52.164;7.558;2022-12-07T02:54:00;8.57;;;4.50;;
17153;SDS011;8692;52.164;7.558;2022-12-07T02:56:30;5.10;;;3.37;;
17153;SDS011;8692;52.164;7.558;2022-12-07T02:59:10;5.73;;;3.77;;
17153;SDS011;8692;52.164;7.558;2022-12-07T03:01:50;7.57;;;3.73;;
17153;SDS011;8692;52.164;7.558;2022-12-07T03:04:33;4.73;;;3.23;;
17153;SDS011;8692;52.164;7.558;2022-12-07T03:07:11;8.00;;;3.63;;
17153;SDS011;8692;52.164;7.558;2022-12-07T03:09:51;9.27;;;3.53;;
17153;SDS011;8692;52.164;7.558;2022-12-07T03:12:29;7.63;;;4.00;;
17153;SDS011;8692;52.164;7.558;2022-12-07T03:15:05;7.10;;;3.20;;
17153;SDS011;8692;52.164;7.558;2022-12-07T03:17:39;6.47;;;4.17;;
17153;SDS011;8692;52.164;7.558;2022-12-07T03:20:12;5.17;;;3.27;;
17153;SDS011;8692;52.164;7.558;2022-12-07T03:22:45;4.63;;;3.83;;
17153;SDS011;8692;52.164;7.558;2022-12-07T03:25:15;7.50;;;3.70;;
17153;SDS011;8692;52.164;7.558;2022-12-07T03:27:47;6.50;;;3.50;;
17153;SDS011;8692;52.164;7.558;2022-12-07T03:30:19;4.97;;;4.13;;
17153;SDS011;8692;52.164;7.558;2022-12-07T03:32:52;5.50;;;3.63;;
17153;SDS011;8692;52.164;7.558;2022-12-07T03:35:24;3.67;;;3.20;;
17153;SDS011;8692;52.164;7.558;2022-12-07T03:37:58;5.10;;;2.87;;
17153;SDS011;8692;52.164;7.558;2022-12-07T03:40:37;5.43;;;3.23;;
17153;SDS011;8692;52.164;7.558;2022-12-07T03:43:08;7.67;;;3.00;;
17153;SDS011;8692;52.164;7.558;2022-12-07T03:45:37;4.67;;;3.30;;
17153;SDS011;8692;52.164;7.558;2022-12-07T03:48:09;6.00;;;2.90;;
17153;SDS011;8692;52.164;7.558;2022-12-07T03:50:48;5.60;;;3.33;;
17153;SDS011;8692;52.164;7.558;2022-12-07T03:53:20;7.57;;;3.40;;
17153;SDS011;8692;52.164;7.558;2022-12-07T03:55:52;6.13;;;3.00;;
17153;SDS011;8692;52.164;7.558;2022-12-07T03:58:25;5.37;;;3.33;;
17153;SDS011;8692;52.164;7.558;2022-12-07T04:00:56;4.17;;;2.80;;
17153;SDS011;8692;52.164;7.558;2022-12-07T04:03:26;7.30;;;3.20;;
17153;SDS011;8692;52.164;7.558;2022-12-07T04:05:54;5.97;;;3.33;;
17153;SDS011;8692;52.164;7.558;2022-12-07T04:08:22;4.77;;;2.83;;
17153;SDS011;8692;52.164;7.558;2022-12-07T04:10:50;7.63;;;3.03;;
17153;SDS011;8692;52.164;7.558;2022-12-07T04:13:19;8.20;;;3.27;;
17153;SDS011;8692;52.164;7.558;2022-12-07T04:15:47;9.03;;;2.97;;
17153;SDS011;8692;52.164;7.558;2022-12-07T04:18:15;7.13;;;2.63;;
17153;SDS011;8692;52.164;7.558;2022-12-07T04:20:47;4.80;;;2.67;;
17153;SDS011;8692;52.164;7.558;2022-12-07T04:23:15;6.67;;;4.73;;
17153;SDS011;8692;52.164;7.558;2022-12-07T04:25:43;8.37;;;3.00;;
17153;SDS011;8692;52.164;7.558;2022-12-07T04:28:11;8.13;;;4.63;;
17153;SDS011;8692;52.164;7.558;2022-12-07T04:30:42;4.60;;;2.97;;
17153;SDS011;8692;52.164;7.558;2022-12-07T04:33:10;7.07;;;2.73;;
17153;SDS011;8692;52.164;7.558;2022-12-07T04:35:38;6.90;;;2.47;;
17153;SDS011;8692;52.164;7.558;2022-12-07T04:38:09;5.20;;;2.07;;
17153;SDS011;8692;52.164;7.558;2022-12-07T04:40:38;5.03;;;2.50;;
17153;SDS011;8692;52.164;7.558;2022-12-07T04:43:06;4.90;;;2.40;;
17153;SDS011;8692;52.164;7.558;2022-12-07T04:45:34;5.57;;;2.20;;
17153;SDS011;8692;52.164;7.558;2022-12-07T04:48:02;7.67;;;2.23;;
17153;SDS011;8692;52.164;7.558;2022-12-07T04:50:30;4.33;;;2.20;;
17153;SDS011;8692;52.164;7.558;2022-12-07T04:52:58;4.93;;;2.53;;
17153;SDS011;8692;52.164;7.558;2022-12-07T04:55:28;8.10;;;2.07;;
17153;SDS011;8692;52.164;7.558;2022-12-07T04:57:56;6.97;;;2.30;;
17153;SDS011;8692;52.164;7.558;2022-12-07T05:00:24;4.33;;;2.20;;
17153;SDS011;8692;52.164;7.558;2022-12-07T05:02:52;6.57;;;2.13;;
17153;SDS011;8692;52.164;7.558;2022-12-07T05:05:20;8.60;;;2.17;;
17153;SDS011;8692;52.164;7.558;2022-12-07T05:07:51;5.30;;;2.43;;
17153;SDS011;8692;52.164;7.558;2022-12-07T05:10:19;11.13;;;2.87;;
17153;SDS011;8692;52.164;7.558;2022-12-07T05:12:52;6.10;;;2.40;;
17153;SDS011;8692;52.164;7.558;2022-12-07T05:15:20;5.37;;;2.10;;
17153;SDS011;8692;52.164;7.558;2022-12-07T05:17:48;7.80;;;2.50;;
17153;SDS011;8692;52.164;7.558;2022-12-07T05:20:20;2.87;;;2.10;;
17153;SDS011;8692;52.164;7.558;2022-12-07T05:22:50;3.90;;;2.03;;
17153;SDS011;8692;52.164;7.558;2022-12-07T05:25:19;6.63;;;2.47;;
17153;SDS011;8692;52.164;7.558;2022-12-07T05:27:47;4.27;;;1.87;;
17153;SDS011;8692;52.164;7.558;2022-12-07T05:30:16;5.30;;;2.27;;
17153;SDS011;8692;52.164;7.558;2022-12-07T05:32:47;7.43;;;2.30;;
17153;SDS011;8692;52.164;7.558;2022-12-07T05:35:18;8.00;;;2.40;;
17153;SDS011;8692;52.164;7.558;2022-12-07T05:37:46;6.17;;;2.43;;
17153;SDS011;8692;52.164;7.558;2022-12-07T05:40:17;9.73;;;2.23;;
17153;SDS011;8692;52.164;7.558;2022-12-07T05:42:47;3.33;;;2.10;;
17153;SDS011;8692;52.164;7.558;2022-12-07T05:45:14;7.60;;;2.50;;
17153;SDS011;8692;52.164;7.558;2022-12-07T05:47:44;8.77;;;2.33;;
17153;SDS011;8692;52.164;7.558;2022-12-07T05:50:12;5.87;;;1.90;;
17153;SDS011;8692;52.164;7.558;2022-12-07T05:52:58;6.00;;;2.30;;
17153;SDS011;8692;52.164;7.558;2022-12-07T05:55:26;3.73;;;2.03;;
17153;SDS011;8692;52.164;7.558;2022-12-07T05:57:54;3.27;;;1.60;;
17153;SDS011;8692;52.164;7.558;2022-12-07T06:00:53;3.23;;;1.80;;
17153;SDS011;8692;52.164;7.558;2022-12-07T06:03:22;5.17;;;2.07;;
17153;SDS011;8692;52.164;7.558;2022-12-07T06:05:51;4.00;;;2.00;;
17153;SDS011;8692;52.164;7.558;2022-12-07T06:08:20;3.17;;;1.90;;
17153;SDS011;8692;52.164;7.558;2022-12-07T06:10:48;5.30;;;2.23;;
17153;SDS011;8692;52.164;7.558;2022-12-07T06:13:38;4.53;;;1.87;;
17153;SDS011;8692;52.164;7.558;2022-12-07T06:16:15;3.87;;;1.60;;
17153;SDS011;8692;52.164;7.558;2022-12-07T06:18:44;6.77;;;1.87;;
17153;SDS011;8692;52.164;7.558;2022-12-07T06:21:12;4.53;;;1.90;;
17153;SDS011;8692;52.164;7.558;2022-12-07T06:23:40;5.93;;;2.47;;
17153;SDS011;8692;52.164;7.558;2022-12-07T06:26:08;7.80;;;2.17;;
17153;SDS011;8692;52.164;7.558;2022-12-07T06:28:37;6.20;;;2.13;;
17153;SDS011;8692;52.164;7.558;2022-12-07T06:31:07;5.70;;;2.17;;
17153;SDS011;8692;52.164;7.558;2022-12-07T06:33:40;8.63;;;1.90;;
17153;SDS011;8692;52.164;7.558;2022-12-07T06:36:12;5.87;;;1.50;;
17153;SDS011;8692;52.164;7.558;2022-12-07T06:38:42;5.23;;;1.87;;
17153;SDS011;8692;52.164;7.558;2022-12-07T06:41:10;9.30;;;1.60;;
17153;SDS011;8692;52.164;7.558;2022-12-07T06:43:38;6.27;;;2.10;;
17153;SDS011;8692;52.164;7.558;2022-12-07T06:46:07;4.93;;;1.50;;
17153;SDS011;8692;52.164;7.558;2022-12-07T06:48:36;7.10;;;1.63;;
17153;SDS011;8692;52.164;7.558;2022-12-07T06:51:05;5.13;;;1.80;;
17153;SDS011;8692;52.164;7.558;2022-12-07T06:53:36;6.17;;;1.70;;
17153;SDS011;8692;52.164;7.558;2022-12-07T06:56:05;7.10;;;2.40;;
17153;SDS011;8692;52.164;7.558;2022-12-07T06:58:34;5.10;;;2.43;;
17153;SDS011;8692;52.164;7.558;2022-12-07T07:01:08;5.20;;;2.00;;
17153;SDS011;8692;52.164;7.558;2022-12-07T07:03:36;4.70;;;1.63;;
17153;SDS011;8692;52.164;7.558;2022-12-07T07:06:06;6.17;;;1.63;;
17153;SDS011;8692;52.164;7.558;2022-12-07T07:08:35;4.50;;;2.60;;
17153;SDS011;8692;52.164;7.558;2022-12-07T07:11:04;3.43;;;1.70;;
17153;SDS011;8692;52.164;7.558;2022-12-07T07:13:34;7.53;;;1.90;;
17153;SDS011;8692;52.164;7.558;2022-12-07T07:16:02;6.73;;;3.07;;
17153;SDS011;8692;52.164;7.558;2022-12-07T07:18:32;5.60;;;2.07;;
17153;SDS011;8692;52.164;7.558;2022-12-07T07:21:01;10.43;;;2.73;;
17153;SDS011;8692;52.164;7.558;2022-12-07T07:23:33;5.20;;;2.63;;
17153;SDS011;8692;52.164;7.558;2022-12-07T07:26:03;6.40;;;2.17;;
17153;SDS011;8692;52.164;7.558;2022-12-07T07:28:33;7.47;;;3.20;;
17153;SDS011;8692;52.164;7.558;2022-12-07T07:31:01;9.17;;;2.60;;
17153;SDS011;8692;52.164;7.558;2022-12-07T07:33:30;3.30;;;2.17;;
17153;SDS011;8692;52.164;7.558;2022-12-07T07:36:00;5.23;;;2.10;;
17153;SDS011;8692;52.164;7.558;2022-12-07T07:38:28;9.50;;;2.40;;
17153;SDS011;8692;52.164;7.558;2022-12-07T07:40:58;7.77;;;2.60;;
17153;SDS011;8692;52.164;7.558;2022-12-07T07:43:28;8.13;;;2.77;;
17153;SDS011;8692;52.164;7.558;2022-12-07T07:45:57;7.50;;;1.90;;
17153;SDS011;8692;52.164;7.558;2022-12-07T07:48:27;3.87;;;1.77;;
17153;SDS011;8692;52.164;7.558;2022-12-07T07:50:55;5.33;;;1.93;;
17153;SDS011;8692;52.164;7.558;2022-12-07T07:53:23;4.53;;;1.50;;
17153;SDS011;8692;52.164;7.558;2022-12-07T07:55:52;6.27;;;2.10;;
17153;SDS011;8692;52.164;7.558;2022-12-07T07:58:22;3.87;;;1.83;;
17153;SDS011;8692;52.164;7.558;2022-12-07T08:00:50;6.17;;;2.57;;
17153;SDS011;8692;52.164;7.558;2022-12-07T08:03:18;4.80;;;1.63;;
17153;SDS011;8692;52.164;7.558;2022-12-07T08:05:46;3.93;;;1.40;;
17153;SDS011;8692;52.164;7.558;2022-12-07T08:08:14;5.33;;;1.93;;
17153;SDS011;8692;52.164;7.558;2022-12-07T08:10:42;5.67;;;1.53;;
17153;SDS011;8692;52.164;7.558;2022-12-07T08:13:11;4.97;;;1.30;;
17153;SDS011;8692;52.164;7.558;2022-12-07T08:15:42;3.23;;;1.37;;
17153;SDS011;8692;52.164;7.558;2022-12-07T08:18:12;4.87;;;1.40;;
17153;SDS011;8692;52.164;7.558;2022-12-07T08:20:44;6.47;;;1.20;;
17153;SDS011;8692;52.164;7.558;2022-12-07T08:23:12;4.80;;;1.30;;
17153;SDS011;8692;52.164;7.558;2022-12-07T08:25:40;7.28;;;2.17;;
17153;SDS011;8692;52.164;7.558;2022-12-07T08:28:10;7.17;;;1.80;;
17153;SDS011;8692;52.164;7.558;2022-12-07T08:30:39;9.50;;;1.57;;
17153;SDS011;8692;52.164;7.558;2022-12-07T08:33:08;4.87;;;1.73;;
17153;SDS011;8692;52.164;7.558;2022-12-07T08:35:37;4.90;;;1.60;;
17153;SDS011;8692;52.164;7.558;2022-12-07T08:38:07;5.67;;;2.00;;
17153;SDS011;8692;52.164;7.558;2022-12-07T08:40:35;6.07;;;2.00;;
17153;SDS011;8692;52.164;7.558;2022-12-07T08:43:05;7.10;;;2.00;;
17153;SDS011;8692;52.164;7.558;2022-12-07T08:45:34;5.83;;;1.63;;
17153;SDS011;8692;52.164;7.558;2022-12-07T08:48:06;4.57;;;1.70;;
17153;SDS011;8692;52.164;7.558;2022-12-07T08:50:38;4.77;;;2.47;;
17153;SDS011;8692;52.164;7.558;2022-12-07T08:53:17;3.33;;;1.40;;
17153;SDS011;8692;52.164;7.558;2022-12-07T08:55:45;5.70;;;2.00;;
17153;SDS011;8692;52.164;7.558;2022-12-07T08:58:14;9.23;;;1.77;;
17153;SDS011;8692;52.164;7.558;2022-12-07T09:00:42;10.07;;;1.80;;
17153;SDS011;8692;52.164;7.558;2022-12-07T09:03:12;8.30;;;1.80;;
17153;SDS011;8692;52.164;7.558;2022-12-07T09:05:40;6.23;;;2.10;;
17153;SDS011;8692;52.164;7.558;2022-12-07T09:08:08;3.07;;;1.40;;
17153;SDS011;8692;52.164;7.558;2022-12-07T09:10:39;9.50;;;2.20;;
17153;SDS011;8692;52.164;7.558;2022-12-07T09:13:07;7.57;;;2.33;;
17153;SDS011;8692;52.164;7.558;2022-12-07T09:15:35;3.90;;;1.67;;
17153;SDS011;8692;52.164;7.558;2022-12-07T09:18:06;5.97;;;1.90;;
17153;SDS011;8692;52.164;7.558;2022-12-07T09:20:35;7.53;;;1.70;;
17153;SDS011;8692;52.164;7.558;2022-12-07T09:23:06;7.03;;;1.60;;
17153;SDS011;8692;52.164;7.558;2022-12-07T09:25:34;7.73;;;2.43;;
17153;SDS011;8692;52.164;7.558;2022-12-07T09:28:03;4.93;;;2.93;;
17153;SDS011;8692;52.164;7.558;2022-12-07T09:30:31;4.37;;;1.77;;
17153;SDS011;8692;52.164;7.558;2022-12-07T09:33:19;8.53;;;2.20;;
17153;SDS011;8692;52.164;7.558;2022-12-07T09:35:49;4.40;;;1.90;;
17153;SDS011;8692;52.164;7.558;2022-12-07T09:38:19;9.57;;;2.37;;
17153;SDS011;8692;52.164;7.558;2022-12-07T09:40:47;9.67;;;1.93;;
17153;SDS011;8692;52.164;7.558;2022-12-07T09:43:17;7.97;;;2.47;;
17153;SDS011;8692;52.164;7.558;2022-12-07T09:45:48;3.93;;;1.90;;
17153;SDS011;8692;52.164;7.558;2022-12-07T09:48:19;7.33;;;1.80;;
17153;SDS011;8692;52.164;7.558;2022-12-07T09:50:51;6.60;;;1.90;;
17153;SDS011;8692;52.164;7.558;2022-12-07T09:53:25;7.87;;;2.03;;
17153;SDS011;8692;52.164;7.558;2022-12-07T09:55:55;10.17;;;2.57;;
17153;SDS011;8692;52.164;7.558;2022-12-07T09:58:24;6.43;;;2.43;;
17153;SDS011;8692;52.164;7.558;2022-12-07T10:00:54;3.10;;;1.20;;
17153;SDS011;8692;52.164;7.558;2022-12-07T10:03:25;5.53;;;1.43;;
17153;SDS011;8692;52.164;7.558;2022-12-07T10:05:56;9.07;;;1.90;;
17153;SDS011;8692;52.164;7.558;2022-12-07T10:08:24;3.63;;;1.30;;
17153;SDS011;8692;52.164;7.558;2022-12-07T10:10:54;5.57;;;1.80;;
17153;SDS011;8692;52.164;7.558;2022-12-07T10:13:34;5.00;;;1.77;;
17153;SDS011;8692;52.164;7.558;2022-12-07T10:16:05;4.47;;;2.03;;
17153;SDS011;8692;52.164;7.558;2022-12-07T10:18:46;10.27;;;2.20;;
17153;SDS011;8692;52.164;7.558;2022-12-07T10:21:16;7.17;;;1.80;;
17153;SDS011;8692;52.164;7.558;2022-12-07T10:23:59;3.10;;;1.37;;
17153;SDS011;8692;52.164;7.558;2022-12-07T10:26:32;6.47;;;1.40;;
17153;SDS011;8692;52.164;7.558;2022-12-07T10:29:13;4.93;;;1.47;;
17153;SDS011;8692;52.164;7.558;2022-12-07T10:31:43;3.67;;;1.70;;
17153;SDS011;8692;52.164;7.558;2022-12-07T10:34:20;6.03;;;1.87;;
17153;SDS011;8692;52.164;7.558;2022-12-07T10:36:52;5.43;;;1.90;;
17153;SDS011;8692;52.164;7.558;2022-12-07T10:39:21;4.27;;;1.40;;
17153;SDS011;8692;52.164;7.558;2022-12-07T10:41:54;4.60;;;1.57;;
17153;SDS011;8692;52.164;7.558;2022-12-07T10:44:24;6.77;;;1.70;;
17153;SDS011;8692;52.164;7.558;2022-12-07T10:46:58;4.90;;;1.47;;
17153;SDS011;8692;52.164;7.558;2022-12-07T10:50:01;5.10;;;1.70;;
17153;SDS011;8692;52.164;7.558;2022-12-07T10:55:54;5.63;;;1.53;;
17153;SDS011;8692;52.164;7.558;2022-12-07T10:58:36;5.33;;;1.53;;
17153;SDS011;8692;52.164;7.558;2022-12-07T11:01:18;9.30;;;4.68;;
17153;SDS011;8692;52.164;7.558;2022-12-07T11:03:56;7.33;;;3.23;;
17153;SDS011;8692;52.164;7.558;2022-12-07T11:06:46;8.93;;;3.17;;
17153;SDS011;8692;52.164;7.558;2022-12-07T11:09:29;5.73;;;3.30;;
17153;SDS011;8692;52.164;7.558;2022-12-07T11:12:37;8.13;;;4.10;;
17153;SDS011;8692;52.164;7.558;2022-12-07T11:15:17;4.70;;;2.30;;
17153;SDS011;8692;52.164;7.558;2022-12-07T11:17:53;7.60;;;2.00;;
17153;SDS011;8692;52.164;7.558;2022-12-07T11:20:37;7.63;;;2.40;;
17153;SDS011;8692;52.164;7.558;2022-12-07T11:23:13;4.47;;;2.57;;
17153;SDS011;8692;52.164;7.558;2022-12-07T11:25:57;7.73;;;2.57;;
17153;SDS011;8692;52.164;7.558;2022-12-07T11:28:36;4.53;;;2.43;;
17153;SDS011;8692;52.164;7.558;2022-12-07T11:31:18;5.00;;;2.40;;
17153;SDS011;8692;52.164;7.558;2022-12-07T11:33:57;10.90;;;3.00;;
17153;SDS011;8692;52.164;7.558;2022-12-07T11:36:36;5.80;;;1.57;;
17153;SDS011;8692;52.164;7.558;2022-12-07T11:39:11;6.23;;;1.97;;
17153;SDS011;8692;52.164;7.558;2022-12-07T11:41:49;4.53;;;1.47;;
17153;SDS011;8692;52.164;7.558;2022-12-07T11:44:25;4.77;;;1.80;;
17153;SDS011;8692;52.164;7.558;2022-12-07T11:47:01;6.53;;;2.20;;
17153;SDS011;8692;52.164;7.558;2022-12-07T11:49:39;8.10;;;2.40;;
17153;SDS011;8692;52.164;7.558;2022-12-07T11:52:18;3.40;;;1.47;;
17153;SDS011;8692;52.164;7.558;2022-12-07T11:54:52;4.03;;;2.00;;
17153;SDS011;8692;52.164;7.558;2022-12-07T11:57:24;6.37;;;1.90;;
17153;SDS011;8692;52.164;7.558;2022-12-07T11:59:57;6.33;;;1.63;;
17153;SDS011;8692;52.164;7.558;2022-12-07T12:02:31;3.80;;;1.53;;
17153;SDS011;8692;52.164;7.558;2022-12-07T12:05:05;5.03;;;1.60;;
17153;SDS011;8692;52.164;7.558;2022-12-07T12:07:41;5.60;;;1.60;;
17153;SDS011;8692;52.164;7.558;2022-12-07T12:10:34;6.60;;;1.50;;
17153;SDS011;8692;52.164;7.558;2022-12-07T12:13:23;6.90;;;1.60;;
17153;SDS011;8692;52.164;7.558;2022-12-07T12:16:34;11.30;;;2.17;;
17153;SDS011;8692;52.164;7.558;2022-12-07T12:19:19;6.03;;;1.53;;
17153;SDS011;8692;52.164;7.558;2022-12-07T12:21:59;7.30;;;2.37;;
17153;SDS011;8692;52.164;7.558;2022-12-07T12:24:33;7.43;;;2.00;;
17153;SDS011;8692;52.164;7.558;2022-12-07T12:27:04;1.97;;;1.33;;
17153;SDS011;8692;52.164;7.558;2022-12-07T12:29:37;3.90;;;1.80;;
17153;SDS011;8692;52.164;7.558;2022-12-07T12:32:12;9.67;;;2.63;;
17153;SDS011;8692;52.164;7.558;2022-12-07T12:34:57;3.63;;;1.53;;
17153;SDS011;8692;52.164;7.558;2022-12-07T12:37:41;4.97;;;1.67;;
17153;SDS011;8692;52.164;7.558;2022-12-07T12:52:52;8.23;;;1.80;;
17153;SDS011;8692;52.164;7.558;2022-12-07T12:58:43;4.00;;;1.40;;
17153;SDS011;8692;52.164;7.558;2022-12-07T13:10:28;4.63;;;1.30;;
17153;SDS011;8692;52.164;7.558;2022-12-07T13:22:40;7.20;;;1.33;;
17153;SDS011;8692;52.164;7.558;2022-12-07T13:25:29;3.40;;;1.17;;
17153;SDS011;8692;52.164;7.558;2022-12-07T13:28:07;3.90;;;1.30;;
17153;SDS011;8692;52.164;7.558;2022-12-07T13:30:45;5.87;;;1.57;;
17153;SDS011;8692;52.164;7.558;2022-12-07T13:33:20;8.73;;;2.90;;
17153;SDS011;8692;52.164;7.558;2022-12-07T13:35:48;5.80;;;1.60;;
17153;SDS011;8692;52.164;7.558;2022-12-07T13:38:25;6.23;;;1.57;;
17153;SDS011;8692;52.164;7.558;2022-12-07T13:41:10;3.60;;;1.30;;
17153;SDS011;8692;52.164;7.558;2022-12-07T13:43:44;7.90;;;1.53;;
17153;SDS011;8692;52.164;7.558;2022-12-07T13:46:17;7.20;;;2.20;;
17153;SDS011;8692;52.164;7.558;2022-12-07T13:48:54;4.03;;;1.57;;
17153;SDS011;8692;52.164;7.558;2022-12-07T13:51:24;6.63;;;1.53;;
17153;SDS011;8692;52.164;7.558;2022-12-07T13:53:55;6.07;;;2.20;;
17153;SDS011;8692;52.164;7.558;2022-12-07T13:56:31;8.80;;;1.50;;
17153;SDS011;8692;52.164;7.558;2022-12-07T13:59:01;5.67;;;2.13;;
17153;SDS011;8692;52.164;7.558;2022-12-07T14:01:30;6.57;;;1.33;;
17153;SDS011;8692;52.164;7.558;2022-12-07T14:06:57;5.23;;;1.43;;
17153;SDS011;8692;52.164;7.558;2022-12-07T14:09:28;4.87;;;1.87;;
17153;SDS011;8692;52.164;7.558;2022-12-07T14:11:57;9.40;;;2.00;;
17153;SDS011;8692;52.164;7.558;2022-12-07T14:14:26;6.03;;;1.60;;
17153;SDS011;8692;52.164;7.558;2022-12-07T14:17:08;3.73;;;1.57;;
17153;SDS011;8692;52.164;7.558;2022-12-07T14:19:45;6.97;;;1.77;;
17153;SDS011;8692;52.164;7.558;2022-12-07T14:22:26;7.00;;;1.90;;
17153;SDS011;8692;52.164;7.558;2022-12-07T14:24:59;4.43;;;1.47;;
17153;SDS011;8692;52.164;7.558;2022-12-07T14:27:52;15.07;;;2.43;;
17153;SDS011;8692;52.164;7.558;2022-12-07T14:30:26;4.63;;;2.00;;
17153;SDS011;8692;52.164;7.558;2022-12-07T14:32:59;6.47;;;2.10;;
17153;SDS011;8692;52.164;7.558;2022-12-07T14:35:28;5.37;;;2.67;;
17153;SDS011;8692;52.164;7.558;2022-12-07T14:38:00;7.90;;;2.40;;
17153;SDS011;8692;52.164;7.558;2022-12-07T14:40:30;6.57;;;2.00;;
17153;SDS011;8692;52.164;7.558;2022-12-07T14:43:02;6.27;;;2.13;;
17153;SDS011;8692;52.164;7.558;2022-12-07T14:45:33;6.57;;;2.00;;
17153;SDS011;8692;52.164;7.558;2022-12-07T14:48:03;4.40;;;2.00;;
17153;SDS011;8692;52.164;7.558;2022-12-07T14:50:54;6.93;;;1.97;;
17153;SDS011;8692;52.164;7.558;2022-12-07T14:53:45;4.10;;;1.93;;
17153;SDS011;8692;52.164;7.558;2022-12-07T14:56:24;3.70;;;1.37;;
17153;SDS011;8692;52.164;7.558;2022-12-07T14:58:56;2.30;;;1.20;;
17153;SDS011;8692;52.164;7.558;2022-12-07T15:01:24;3.73;;;1.60;;
17153;SDS011;8692;52.164;7.558;2022-12-07T15:03:55;6.87;;;1.90;;
17153;SDS011;8692;52.164;7.558;2022-12-07T15:06:23;3.03;;;1.20;;
17153;SDS011;8692;52.164;7.558;2022-12-07T15:08:53;4.83;;;1.10;;
17153;SDS011;8692;52.164;7.558;2022-12-07T15:11:23;7.43;;;1.40;;
17153;SDS011;8692;52.164;7.558;2022-12-07T15:13:51;3.90;;;1.63;;
17153;SDS011;8692;52.164;7.558;2022-12-07T15:16:39;7.80;;;2.30;;
17153;SDS011;8692;52.164;7.558;2022-12-07T15:19:28;5.87;;;1.20;;
17153;SDS011;8692;52.164;7.558;2022-12-07T15:21:57;5.30;;;1.50;;
17153;SDS011;8692;52.164;7.558;2022-12-07T15:24:26;11.00;;;1.57;;
17153;SDS011;8692;52.164;7.558;2022-12-07T15:26:55;5.83;;;1.77;;
17153;SDS011;8692;52.164;7.558;2022-12-07T15:29:26;7.20;;;2.30;;
17153;SDS011;8692;52.164;7.558;2022-12-07T15:31:54;5.13;;;1.60;;
17153;SDS011;8692;52.164;7.558;2022-12-07T15:34:26;5.53;;;1.53;;
17153;SDS011;8692;52.164;7.558;2022-12-07T15:37:05;7.60;;;2.13;;
17153;SDS011;8692;52.164;7.558;2022-12-07T15:39:35;5.80;;;1.83;;
17153;SDS011;8692;52.164;7.558;2022-12-07T15:42:07;2.97;;;1.27;;
17153;SDS011;8692;52.164;7.558;2022-12-07T15:44:35;6.37;;;1.90;;
17153;SDS011;8692;52.164;7.558;2022-12-07T15:47:21;4.87;;;1.50;;
17153;SDS011;8692;52.164;7.558;2022-12-07T15:49:51;3.33;;;1.40;;
17153;SDS011;8692;52.164;7.558;2022-12-07T15:52:22;7.80;;;1.70;;
17153;SDS011;8692;52.164;7.558;2022-12-07T15:54:50;5.23;;;1.77;;
17153;SDS011;8692;52.164;7.558;2022-12-07T15:57:19;6.77;;;1.77;;
17153;SDS011;8692;52.164;7.558;2022-12-07T15:59:53;5.13;;;1.90;;
17153;SDS011;8692;52.164;7.558;2022-12-07T16:02:21;7.20;;;1.97;;
17153;SDS011;8692;52.164;7.558;2022-12-07T16:04:52;3.93;;;2.03;;
17153;SDS011;8692;52.164;7.558;2022-12-07T16:07:22;7.23;;;2.23;;
17153;SDS011;8692;52.164;7.558;2022-12-07T16:09:50;7.40;;;2.57;;
17153;SDS011;8692;52.164;7.558;2022-12-07T16:12:20;4.17;;;2.57;;
17153;SDS011;8692;52.164;7.558;2022-12-07T16:14:48;8.27;;;2.70;;
17153;SDS011;8692;52.164;7.558;2022-12-07T16:17:16;11.80;;;4.17;;